createdAt,value
2019-05-18T00:02:09.484Z,63.62
2019-05-18T00:07:15.049Z,64.02
2019-05-18T00:12:21.327Z,64.25
2019-05-18T00:17:28.356Z,63.62
2019-05-18T00:22:33.801Z,64.00
2019-05-18T00:27:40.860Z,64.09
2019-05-18T00:32:46.374Z,65.49
2019-05-18T00:37:57.344Z,65.00
2019-05-18T00:43:03.027Z,64.52
2019-05-18T00:48:12.175Z,64.40
2019-05-18T00:53:18.601Z,64.32
2019-05-18T00:58:26.226Z,64.34
2019-05-18T01:08:35.448Z,64.80
2019-05-18T01:13:40.998Z,65.25
2019-05-18T01:18:46.533Z,65.79
2019-05-18T01:23:52.017Z,66.25
2019-05-18T01:29:03.069Z,65.80
2019-05-18T01:34:15.026Z,64.94
2019-05-18T01:39:21.259Z,65.08
2019-05-18T01:44:28.602Z,65.94
2019-05-18T01:49:34.072Z,65.78
2019-05-18T01:54:40.724Z,64.99
2019-05-18T01:59:46.536Z,65.38
2019-05-18T02:04:52.148Z,65.25
2019-05-18T02:09:57.617Z,64.28
2019-05-18T02:15:03.536Z,63.81
2019-05-18T02:20:10.256Z,64.34
2019-05-18T02:25:16.466Z,65.09
2019-05-18T02:30:22.027Z,65.38
2019-05-18T02:35:29.053Z,64.92
2019-05-18T02:40:35.504Z,64.63
2019-05-18T02:45:41.184Z,64.95
2019-05-18T02:50:48.720Z,63.92
2019-05-18T02:55:55.195Z,65.02
2019-05-18T03:01:01.731Z,65.27
2019-05-18T03:06:09.350Z,65.78
2019-05-18T03:11:14.989Z,66.54
2019-05-18T03:16:20.560Z,66.91
2019-05-18T03:21:28.499Z,68.17
2019-05-18T03:26:36.450Z,68.75
2019-05-18T03:31:41.973Z,69.00
2019-05-18T03:36:48.223Z,69.99
2019-05-18T03:41:55.000Z,68.62
2019-05-18T03:47:03.725Z,68.32
2019-05-18T03:52:12.333Z,66.96
2019-05-18T03:57:17.812Z,66.29
2019-05-18T04:02:24.513Z,67.08
2019-05-18T04:07:29.971Z,67.47
2019-05-18T04:12:35.517Z,66.71
2019-05-18T04:17:41.007Z,66.87
2019-05-18T04:22:49.032Z,62.83
2019-05-18T04:27:55.839Z,63.62
2019-05-18T04:33:01.412Z,61.31
2019-05-18T04:38:11.639Z,60.39
2019-05-18T04:43:17.438Z,61.33
2019-05-18T04:48:22.981Z,59.84
2019-05-18T04:53:28.879Z,62.55
2019-05-18T04:58:35.272Z,62.68
2019-05-18T05:03:40.893Z,62.52
2019-05-18T05:08:46.328Z,62.38
2019-05-18T05:13:51.847Z,61.81
2019-05-18T05:18:58.471Z,62.06
2019-05-18T05:24:05.667Z,61.16
2019-05-18T05:29:11.211Z,62.80
2019-05-18T05:34:16.758Z,61.71
2019-05-18T05:39:27.907Z,61.24
2019-05-18T05:44:33.603Z,60.81
2019-05-18T05:49:39.151Z,60.16
2019-05-18T05:54:44.980Z,59.63
2019-05-18T05:59:50.607Z,59.21
2019-05-18T06:04:57.816Z,56.43
2019-05-18T06:10:03.502Z,55.44
2019-05-18T06:15:09.803Z,53.98
2019-05-18T06:20:25.971Z,55.22
2019-05-18T06:25:34.406Z,53.70
2019-05-18T06:30:40.569Z,51.83
2019-05-18T06:35:46.030Z,50.78
2019-05-18T06:40:53.568Z,50.95
2019-05-18T06:45:59.220Z,50.10
2019-05-18T06:51:07.722Z,51.05
2019-05-18T06:56:14.488Z,50.28
2019-05-18T07:01:21.620Z,50.02
2019-05-18T07:06:27.165Z,50.00
2019-05-18T07:11:32.705Z,48.78
2019-05-18T07:16:38.305Z,48.31
2019-05-18T07:21:44.929Z,48.10
2019-05-18T07:26:55.449Z,48.21
2019-05-18T07:32:01.854Z,47.84
2019-05-18T07:37:09.128Z,47.80
2019-05-18T07:42:14.741Z,48.13
2019-05-18T07:47:22.597Z,46.52
2019-05-18T07:52:28.164Z,47.04
2019-05-18T07:57:34.430Z,48.00
2019-05-18T08:02:39.989Z,49.16
2019-05-18T08:07:48.888Z,48.32
2019-05-18T08:12:55.171Z,47.46
2019-05-18T08:18:04.590Z,46.43
2019-05-18T08:23:12.022Z,45.86
2019-05-18T08:28:18.257Z,45.06
2019-05-18T08:33:25.931Z,46.89
2019-05-18T08:38:33.032Z,44.92
2019-05-18T08:43:38.516Z,44.68
2019-05-18T08:48:44.755Z,45.41
2019-05-18T08:53:51.435Z,45.51
2019-05-18T08:58:57.876Z,46.65
2019-05-18T09:04:07.870Z,47.47
2019-05-18T09:09:13.582Z,47.48
2019-05-18T09:14:19.115Z,47.79
2019-05-18T09:19:24.762Z,47.31
2019-05-18T09:24:30.251Z,45.67
2019-05-18T09:29:35.820Z,44.22
2019-05-18T09:34:41.421Z,45.90
2019-05-18T09:39:47.022Z,45.19
2019-05-18T09:44:54.582Z,44.61
2019-05-18T09:50:00.252Z,44.46
2019-05-18T09:55:06.957Z,44.77
2019-05-18T10:00:15.229Z,45.15
2019-05-18T10:05:22.614Z,45.61
2019-05-18T10:10:28.140Z,45.33
2019-05-18T10:15:33.687Z,44.91
2019-05-18T10:20:39.229Z,44.75
2019-05-18T10:25:44.841Z,45.61
2019-05-18T10:30:50.490Z,46.52
2019-05-18T10:35:56.093Z,44.92
2019-05-18T10:41:02.054Z,45.82
2019-05-18T10:46:09.390Z,44.55
2019-05-18T10:51:15.388Z,44.53
2019-05-18T10:56:20.910Z,44.03
2019-05-18T11:01:26.518Z,44.30
2019-05-18T11:06:32.089Z,43.87
2019-05-18T11:11:40.610Z,44.50
2019-05-18T11:16:45.897Z,44.50
2019-05-18T11:21:52.042Z,44.62
2019-05-18T11:26:59.907Z,44.36
2019-05-18T11:32:05.694Z,44.81
2019-05-18T11:37:11.296Z,43.09
2019-05-18T11:42:16.768Z,43.62
2019-05-18T11:47:22.376Z,43.94
2019-05-18T11:52:28.282Z,42.50
2019-05-18T11:57:33.923Z,43.57
2019-05-18T12:02:39.525Z,43.25
2019-05-18T12:07:45.105Z,43.32
2019-05-18T12:12:50.797Z,42.17
2019-05-18T12:17:56.326Z,41.62
2019-05-18T12:23:02.120Z,41.42
2019-05-18T12:28:07.862Z,42.38
2019-05-18T12:33:13.437Z,40.33
2019-05-18T12:38:19.001Z,40.52
2019-05-18T12:43:24.430Z,42.02
2019-05-18T12:48:32.061Z,41.25
2019-05-18T12:53:38.022Z,40.51
2019-05-18T12:58:43.571Z,41.41
2019-05-18T13:03:49.065Z,42.11
2019-05-18T13:08:54.625Z,41.11
2019-05-18T13:14:00.298Z,40.43
2019-05-18T13:19:08.898Z,40.02
2019-05-18T13:24:14.559Z,39.20
2019-05-18T13:29:20.014Z,38.91
2019-05-18T13:34:25.602Z,39.77
2019-05-18T13:39:31.190Z,38.73
2019-05-18T13:44:38.180Z,38.82
2019-05-18T13:49:44.103Z,39.40
2019-05-18T13:55:03.167Z,39.44
2019-05-18T13:59:59.688Z,40.26
2019-05-18T14:05:08.215Z,39.99
2019-05-18T14:10:14.570Z,39.01
2019-05-18T14:15:22.762Z,39.79
2019-05-18T14:20:27.555Z,38.75
2019-05-18T14:25:33.140Z,38.66
2019-05-18T14:30:38.602Z,38.75
2019-05-18T14:35:48.884Z,39.10
2019-05-18T14:40:54.608Z,38.80
2019-05-18T14:46:01.608Z,38.18
2019-05-18T14:51:07.480Z,38.75
2019-05-18T14:56:15.023Z,38.84
2019-05-18T15:01:20.629Z,38.01
2019-05-18T15:06:28.263Z,37.30
2019-05-18T15:11:33.826Z,37.51
2019-05-18T15:16:39.367Z,39.20
2019-05-18T15:21:44.979Z,38.73
2019-05-18T15:26:50.642Z,37.58
2019-05-18T15:31:56.256Z,38.07
2019-05-18T15:37:04.195Z,37.84
2019-05-18T15:42:10.205Z,37.04
2019-05-18T15:47:16.027Z,37.09
2019-05-18T15:52:21.640Z,36.56
2019-05-18T15:57:27.757Z,36.97
2019-05-18T16:02:33.800Z,36.85
2019-05-18T16:07:39.392Z,37.03
2019-05-18T16:12:46.918Z,37.42
2019-05-18T16:17:55.737Z,36.57
2019-05-18T16:23:01.467Z,35.86
2019-05-18T16:28:08.816Z,36.31
2019-05-18T16:33:14.572Z,37.08
2019-05-18T16:38:20.103Z,36.48
2019-05-18T16:43:26.404Z,36.82
2019-05-18T16:48:39.693Z,36.41
2019-05-18T16:53:49.409Z,36.04
2019-05-18T16:58:52.853Z,37.65
2019-05-18T17:03:58.339Z,37.59
2019-05-18T17:09:06.739Z,36.40
2019-05-18T17:14:13.304Z,36.70
2019-05-18T17:19:21.093Z,36.94
2019-05-18T17:24:28.217Z,37.25
2019-05-18T17:29:33.749Z,37.41
2019-05-18T17:34:39.348Z,38.33
2019-05-18T17:39:46.912Z,37.76
2019-05-18T17:44:52.513Z,38.48
2019-05-18T17:49:58.103Z,38.52
2019-05-18T17:55:04.127Z,38.58
2019-05-18T18:00:12.689Z,39.06
2019-05-18T18:05:18.318Z,39.93
2019-05-18T18:10:23.996Z,41.76
2019-05-18T18:15:29.686Z,43.21
2019-05-18T18:20:35.318Z,43.67
2019-05-18T18:25:41.670Z,43.81
2019-05-18T18:30:47.523Z,44.18
2019-05-18T18:35:53.107Z,44.96
2019-05-18T18:40:58.708Z,45.21
2019-05-18T18:46:09.584Z,45.67
2019-05-18T18:51:16.705Z,45.73
2019-05-18T18:56:23.623Z,46.25
2019-05-18T19:01:31.082Z,46.96
2019-05-18T19:06:39.827Z,47.46
2019-05-18T19:11:47.594Z,48.05
2019-05-18T19:16:53.275Z,48.35
2019-05-18T19:22:00.309Z,48.74
2019-05-18T19:27:06.432Z,49.03
2019-05-18T19:32:18.582Z,49.10
2019-05-18T19:37:19.535Z,49.12
2019-05-18T19:42:25.158Z,49.98
2019-05-18T19:47:33.939Z,50.12
2019-05-18T19:52:41.182Z,49.72
2019-05-18T19:57:47.803Z,50.43
2019-05-18T20:02:57.252Z,51.52
2019-05-18T20:08:03.060Z,52.41
2019-05-18T20:13:10.765Z,52.25
2019-05-18T20:18:16.385Z,53.16
2019-05-18T20:23:23.058Z,52.70
2019-05-18T20:28:29.883Z,53.05
2019-05-18T20:33:38.819Z,53.38
2019-05-18T20:38:46.758Z,53.81
2019-05-18T20:43:54.913Z,54.39
2019-05-18T20:49:00.481Z,54.01
2019-05-18T20:54:08.931Z,54.63
2019-05-18T20:59:14.532Z,54.49
2019-05-18T21:04:20.628Z,54.95
2019-05-18T21:09:29.388Z,55.41
2019-05-18T21:14:40.003Z,55.49
2019-05-18T21:19:46.600Z,56.48
2019-05-18T21:24:52.174Z,56.64
2019-05-18T21:29:57.811Z,56.82
2019-05-18T21:35:03.579Z,57.26
2019-05-18T21:40:11.787Z,57.10
2019-05-18T21:45:22.326Z,58.04
2019-05-18T21:50:27.985Z,58.24
2019-05-18T21:55:36.165Z,58.52
2019-05-18T22:00:42.770Z,59.20
2019-05-18T22:05:49.863Z,58.92
2019-05-18T22:10:55.401Z,58.93
2019-05-18T22:16:00.948Z,59.37
2019-05-18T22:21:07.881Z,59.65
2019-05-18T22:26:15.054Z,59.95
2019-05-18T22:31:20.622Z,59.71
2019-05-18T22:36:26.270Z,59.92
2019-05-18T22:41:34.590Z,60.18
2019-05-18T22:46:40.025Z,60.61
2019-05-18T22:51:45.575Z,60.59
2019-05-18T22:56:51.167Z,60.80
2019-05-18T23:01:56.755Z,61.15
2019-05-18T23:07:02.499Z,61.42
2019-05-18T23:12:08.135Z,61.07
2019-05-18T23:17:13.685Z,61.03
2019-05-18T23:22:19.202Z,61.33
2019-05-18T23:27:27.533Z,61.27
2019-05-18T23:32:33.026Z,61.49
2019-05-18T23:37:38.587Z,61.36
2019-05-18T23:42:44.115Z,61.23
2019-05-18T23:47:53.830Z,61.89
2019-05-18T23:52:59.905Z,62.03
2019-05-18T23:58:06.208Z,62.35
